createdAt,value
2023-11-06T00:01:17.623Z,0.10
2023-11-06T00:03:44.755Z,0.20
2023-11-06T00:06:13.303Z,0.10
2023-11-06T00:08:40.271Z,0.10
2023-11-06T00:11:07.231Z,0.10
2023-11-06T00:13:34.760Z,0.10
2023-11-06T00:16:12.589Z,0.30
2023-11-06T00:18:43.192Z,0.20
2023-11-06T00:21:13.710Z,0.10
2023-11-06T00:23:40.814Z,0.60
2023-11-06T00:26:07.786Z,0.20
2023-11-06T00:28:34.635Z,0.10
2023-11-06T00:31:02.235Z,0.10
2023-11-06T00:33:29.103Z,0.10
2023-11-06T00:35:56.016Z,0.10
2023-11-06T00:38:22.923Z,0.10
2023-11-06T00:40:49.918Z,1.03
2023-11-06T00:43:17.318Z,0.10
2023-11-06T00:45:44.505Z,0.10
2023-11-06T00:48:11.658Z,0.33
2023-11-06T00:50:38.571Z,0.13
2023-11-06T00:53:05.615Z,0.10
2023-11-06T00:55:32.593Z,0.10
2023-11-06T00:57:59.615Z,0.10
2023-11-06T01:00:26.521Z,0.10
2023-11-06T01:02:53.467Z,0.10
2023-11-06T01:05:20.374Z,0.20
2023-11-06T01:07:47.492Z,0.10
2023-11-06T01:10:15.769Z,0.13
2023-11-06T01:12:42.688Z,0.20
2023-11-06T01:15:09.845Z,0.10
2023-11-06T01:17:37.344Z,0.30
2023-11-06T01:20:05.480Z,0.10
2023-11-06T01:22:41.128Z,0.10
2023-11-06T01:25:09.454Z,0.10
2023-11-06T01:27:36.757Z,0.10
2023-11-06T01:30:04.836Z,0.10
2023-11-06T01:32:31.984Z,0.10
2023-11-06T01:34:59.088Z,0.10
2023-11-06T01:37:27.449Z,0.10
2023-11-06T01:42:43.114Z,0.10
2023-11-06T01:45:10.759Z,0.10
2023-11-06T01:47:37.880Z,0.10
2023-11-06T01:50:06.362Z,0.10
2023-11-06T01:52:35.068Z,0.10
2023-11-06T01:55:02.359Z,0.10
2023-11-06T01:57:29.682Z,0.17
2023-11-06T01:59:56.900Z,0.10
2023-11-06T02:02:28.945Z,0.10
2023-11-06T02:04:56.654Z,0.10
2023-11-06T02:07:23.624Z,0.10
2023-11-06T02:09:50.490Z,0.10
2023-11-06T02:12:17.534Z,0.27
2023-11-06T02:14:51.628Z,0.10
2023-11-06T02:17:18.794Z,0.10
2023-11-06T02:19:50.037Z,0.77
2023-11-06T02:22:19.821Z,0.40
2023-11-06T02:24:50.367Z,0.13
2023-11-06T02:27:18.114Z,0.40
2023-11-06T02:29:45.521Z,0.20
2023-11-06T02:32:12.481Z,0.20
2023-11-06T02:34:41.418Z,0.20
2023-11-06T02:37:10.108Z,0.10
2023-11-06T02:39:38.232Z,0.10
2023-11-06T02:42:06.214Z,0.30
2023-11-06T02:44:33.282Z,0.20
2023-11-06T02:47:00.309Z,0.17
2023-11-06T02:49:27.365Z,0.10
2023-11-06T02:51:55.205Z,0.13
2023-11-06T02:54:26.023Z,0.30
2023-11-06T02:56:53.755Z,0.30
2023-11-06T02:59:23.329Z,0.20
2023-11-06T03:01:50.615Z,0.20
2023-11-06T03:04:17.478Z,0.10
2023-11-06T03:06:44.474Z,0.57
2023-11-06T03:09:13.192Z,0.10
2023-11-06T03:11:40.295Z,0.10
2023-11-06T03:14:07.238Z,0.33
2023-11-06T03:16:35.582Z,0.20
2023-11-06T03:19:04.436Z,0.10
2023-11-06T03:21:31.357Z,0.10
2023-11-06T03:23:58.531Z,0.17
2023-11-06T03:26:25.494Z,0.80
2023-11-06T03:28:52.389Z,0.20
2023-11-06T03:31:19.422Z,0.10
2023-11-06T03:33:46.427Z,0.40
2023-11-06T03:36:13.333Z,0.10
2023-11-06T03:38:40.207Z,0.13
2023-11-06T03:41:07.102Z,0.10
2023-11-06T03:43:33.992Z,0.10
2023-11-06T03:46:01.154Z,0.23
2023-11-06T03:48:28.000Z,0.10
2023-11-06T03:50:54.991Z,0.20
2023-11-06T03:53:21.965Z,0.10
2023-11-06T03:55:49.136Z,0.10
2023-11-06T03:58:16.517Z,0.17
2023-11-06T04:00:43.472Z,0.10
2023-11-06T04:03:10.371Z,0.40
2023-11-06T04:05:37.427Z,0.10
2023-11-06T04:08:07.246Z,0.67
2023-11-06T04:10:34.231Z,0.10
2023-11-06T04:13:01.065Z,0.13
2023-11-06T04:15:27.863Z,0.20
2023-11-06T04:17:54.699Z,0.23
2023-11-06T04:20:21.646Z,0.40
2023-11-06T04:22:48.472Z,0.83
2023-11-06T04:25:15.419Z,0.10
2023-11-06T04:27:42.283Z,0.30
2023-11-06T04:30:09.719Z,0.30
2023-11-06T04:32:36.781Z,0.10
2023-11-06T04:35:05.020Z,0.20
2023-11-06T04:37:31.870Z,0.30
2023-11-06T04:39:59.008Z,0.30
2023-11-06T04:42:28.809Z,0.10
2023-11-06T04:44:55.609Z,0.20
2023-11-06T04:47:22.678Z,0.20
2023-11-06T04:49:49.535Z,0.10
2023-11-06T04:52:16.638Z,0.20
2023-11-06T04:54:43.482Z,0.10
2023-11-06T04:57:10.704Z,0.33
2023-11-06T04:59:38.821Z,0.40
2023-11-06T05:02:05.767Z,0.30
2023-11-06T05:04:32.651Z,0.30
2023-11-06T05:07:00.047Z,0.17
2023-11-06T05:09:26.843Z,0.30
2023-11-06T05:11:55.354Z,0.33
2023-11-06T05:14:22.486Z,0.10
2023-11-06T05:16:49.587Z,0.10
2023-11-06T05:19:16.482Z,0.47
2023-11-06T05:21:43.283Z,0.53
2023-11-06T05:24:10.982Z,0.10
2023-11-06T05:26:39.674Z,0.20
2023-11-06T05:29:09.837Z,0.77
2023-11-06T05:31:36.806Z,0.40
2023-11-06T05:34:06.140Z,0.33
2023-11-06T05:36:34.675Z,0.20
2023-11-06T05:39:01.752Z,0.10
2023-11-06T05:41:29.287Z,0.30
2023-11-06T05:43:56.613Z,0.10
2023-11-06T05:46:23.543Z,0.33
2023-11-06T05:48:50.426Z,0.10
2023-11-06T05:51:17.438Z,0.30
2023-11-06T05:53:44.302Z,0.20
2023-11-06T05:56:11.244Z,0.40
2023-11-06T05:58:38.053Z,0.20
2023-11-06T06:01:05.905Z,0.10
2023-11-06T06:03:32.931Z,0.30
2023-11-06T06:06:00.103Z,0.20
2023-11-06T06:08:27.187Z,0.30
2023-11-06T06:10:54.023Z,0.10
2023-11-06T06:13:20.978Z,0.20
2023-11-06T06:15:48.054Z,0.20
2023-11-06T06:18:15.112Z,0.87
2023-11-06T06:20:42.040Z,0.20
2023-11-06T06:23:09.582Z,0.20
2023-11-06T06:25:36.840Z,0.30
2023-11-06T06:28:05.757Z,0.37
2023-11-06T06:30:32.797Z,0.47
2023-11-06T06:33:00.172Z,0.10
2023-11-06T06:35:27.238Z,0.10
2023-11-06T06:37:55.116Z,0.10
2023-11-06T06:40:22.445Z,0.10
2023-11-06T06:42:49.267Z,0.10
2023-11-06T06:45:19.393Z,0.10
2023-11-06T06:47:46.315Z,0.10
2023-11-06T06:50:13.286Z,0.30
2023-11-06T06:52:40.236Z,0.40
2023-11-06T06:55:07.644Z,0.20
2023-11-06T06:57:34.815Z,0.60
2023-11-06T07:00:01.689Z,0.10
2023-11-06T07:02:28.772Z,0.20
2023-11-06T07:04:55.719Z,0.10
2023-11-06T07:07:23.769Z,0.10
2023-11-06T07:09:50.700Z,0.10
2023-11-06T07:12:17.576Z,0.20
2023-11-06T07:14:44.467Z,0.20
2023-11-06T07:17:11.465Z,0.20
2023-11-06T07:19:38.583Z,0.10
2023-11-06T07:22:05.589Z,0.10
2023-11-06T07:24:32.389Z,0.20
2023-11-06T07:27:00.043Z,0.20
2023-11-06T07:29:27.385Z,0.10
2023-11-06T07:31:54.617Z,0.20
2023-11-06T07:34:23.951Z,0.20
2023-11-06T07:36:52.037Z,0.20
2023-11-06T07:39:21.545Z,0.20
2023-11-06T07:41:48.620Z,0.10
2023-11-06T07:44:15.608Z,0.20
2023-11-06T07:46:42.557Z,0.10
2023-11-06T07:49:09.395Z,0.30
2023-11-06T07:51:36.588Z,0.20
2023-11-06T07:54:03.990Z,0.10
2023-11-06T07:56:30.867Z,0.10
2023-11-06T07:58:57.725Z,0.23
2023-11-06T08:01:24.694Z,0.73
2023-11-06T08:03:51.712Z,0.10
2023-11-06T08:06:19.231Z,0.10
2023-11-06T08:08:46.275Z,0.80
2023-11-06T08:11:13.182Z,0.10
2023-11-06T08:13:40.154Z,0.20
2023-11-06T08:16:08.056Z,0.10
2023-11-06T08:18:36.422Z,0.10
2023-11-06T08:21:03.803Z,0.27
2023-11-06T08:23:34.656Z,0.10
2023-11-06T08:26:01.558Z,0.10
2023-11-06T08:28:29.202Z,0.10
2023-11-06T08:30:56.197Z,0.10
2023-11-06T08:33:23.215Z,0.37
2023-11-06T08:35:50.158Z,0.10
2023-11-06T08:38:17.036Z,0.20
2023-11-06T08:40:48.619Z,0.10
2023-11-06T08:43:17.455Z,0.20
2023-11-06T08:45:44.630Z,0.10
2023-11-06T08:48:11.636Z,1.30
2023-11-06T08:50:38.521Z,0.10
2023-11-06T08:53:05.922Z,0.10
2023-11-06T08:55:32.788Z,0.10
2023-11-06T08:57:59.788Z,0.30
2023-11-06T09:00:28.768Z,0.23
2023-11-06T09:02:55.845Z,0.17
2023-11-06T09:05:23.191Z,0.10
2023-11-06T09:07:50.296Z,0.10
2023-11-06T09:10:21.784Z,0.30
2023-11-06T09:12:48.651Z,0.67
2023-11-06T09:15:16.647Z,0.20
2023-11-06T09:17:43.658Z,0.10
2023-11-06T09:20:11.211Z,0.20
2023-11-06T09:22:38.297Z,0.10
2023-11-06T09:25:09.504Z,0.20
2023-11-06T09:27:36.702Z,0.20
2023-11-06T09:30:08.718Z,0.10
2023-11-06T09:32:35.776Z,0.10
2023-11-06T09:35:04.934Z,0.20
2023-11-06T09:37:35.043Z,0.40
2023-11-06T09:40:02.458Z,0.30
2023-11-06T09:42:31.399Z,0.13
2023-11-06T09:44:58.451Z,0.10
2023-11-06T09:47:26.238Z,0.10
2023-11-06T09:50:04.425Z,0.10
2023-11-06T09:52:32.560Z,0.10
2023-11-06T09:55:01.590Z,0.10
2023-11-06T09:57:30.473Z,0.20
2023-11-06T09:59:59.671Z,0.13
2023-11-06T10:02:26.905Z,0.10
2023-11-06T10:04:54.030Z,0.20
2023-11-06T10:07:42.920Z,0.10
2023-11-06T10:10:19.659Z,0.10
2023-11-06T10:13:00.467Z,0.10
2023-11-06T10:15:27.422Z,0.40
2023-11-06T10:17:54.736Z,0.10
2023-11-06T10:20:27.286Z,0.10
2023-11-06T10:22:56.515Z,0.10
2023-11-06T10:25:30.169Z,0.10
2023-11-06T10:28:00.393Z,0.10
2023-11-06T10:30:31.475Z,0.30
2023-11-06T10:33:14.337Z,0.10
2023-11-06T10:35:42.194Z,0.20
2023-11-06T10:38:10.440Z,0.10
2023-11-06T10:40:40.265Z,0.10
2023-11-06T10:43:08.028Z,0.10
2023-11-06T10:45:34.945Z,0.17
2023-11-06T10:48:12.536Z,0.10
2023-11-06T10:50:39.965Z,0.10
2023-11-06T10:53:07.705Z,0.10
2023-11-06T10:55:36.869Z,0.10
2023-11-06T10:58:04.771Z,0.20
2023-11-06T11:00:33.066Z,0.10
2023-11-06T11:03:01.913Z,0.20
2023-11-06T11:05:35.361Z,0.10
2023-11-06T11:08:05.681Z,0.13
2023-11-06T11:10:33.138Z,0.20
2023-11-06T11:13:03.776Z,0.10
2023-11-06T11:15:35.670Z,0.10
2023-11-06T11:18:09.676Z,0.10
2023-11-06T11:20:59.502Z,0.10
2023-11-06T11:23:45.042Z,0.20
2023-11-06T11:26:13.630Z,0.03
2023-11-06T11:28:55.344Z,0.10
2023-11-06T11:31:41.588Z,0.10
2023-11-06T11:34:09.980Z,0.10
2023-11-06T11:36:39.431Z,0.10
2023-11-06T11:39:18.589Z,0.17
2023-11-06T11:42:06.196Z,0.10
2023-11-06T11:44:33.442Z,0.10
2023-11-06T11:47:02.763Z,0.20
2023-11-06T11:49:41.158Z,0.10
2023-11-06T11:52:09.610Z,0.20
2023-11-06T11:54:38.683Z,0.10
2023-11-06T11:57:08.497Z,0.10
2023-11-06T11:59:50.741Z,0.10
2023-11-06T12:02:35.978Z,0.47
2023-11-06T12:05:24.355Z,0.10
2023-11-06T12:07:51.262Z,0.10
2023-11-06T12:10:28.000Z,0.00
2023-11-06T12:12:56.353Z,0.20
2023-11-06T12:15:34.123Z,0.20
2023-11-06T12:18:12.700Z,0.40
2023-11-06T12:20:41.226Z,0.10
2023-11-06T12:23:08.620Z,0.10
2023-11-06T12:25:37.084Z,0.30
2023-11-06T12:28:05.851Z,0.20
2023-11-06T12:30:38.856Z,0.10
2023-11-06T12:33:16.448Z,0.10
2023-11-06T12:35:45.436Z,0.10
2023-11-06T12:38:13.236Z,0.10
2023-11-06T12:40:44.948Z,0.10
2023-11-06T12:43:17.242Z,0.10
2023-11-06T12:45:45.378Z,0.43
2023-11-06T12:48:43.820Z,0.20
2023-11-06T12:51:12.495Z,0.10
2023-11-06T12:53:44.922Z,0.10
2023-11-06T12:56:12.419Z,0.00
2023-11-06T12:58:39.734Z,0.43
2023-11-06T13:01:29.182Z,0.20
2023-11-06T13:03:56.452Z,0.20
2023-11-06T13:06:23.939Z,0.40
2023-11-06T13:08:51.241Z,0.00
2023-11-06T13:11:29.257Z,0.40
2023-11-06T13:14:01.969Z,0.60
2023-11-06T13:16:30.565Z,0.00
2023-11-06T13:18:57.737Z,0.17
2023-11-06T13:21:29.797Z,0.10
2023-11-06T13:23:57.624Z,0.00
2023-11-06T13:26:24.698Z,0.07
2023-11-06T13:28:53.578Z,0.30
2023-11-06T13:31:23.256Z,0.10
2023-11-06T13:33:51.543Z,0.10
2023-11-06T13:36:19.211Z,0.10
2023-11-06T13:38:48.974Z,0.40
2023-11-06T13:41:25.582Z,0.10
2023-11-06T13:43:53.089Z,0.10
2023-11-06T13:46:22.590Z,0.27
2023-11-06T13:48:51.732Z,0.10
2023-11-06T13:51:23.940Z,0.10
2023-11-06T13:53:56.241Z,0.60
2023-11-06T13:56:28.962Z,0.63
2023-11-06T13:58:58.581Z,0.20
2023-11-06T14:01:38.201Z,0.33
2023-11-06T14:04:06.674Z,0.30
2023-11-06T14:06:35.096Z,0.10
2023-11-06T14:09:07.302Z,0.10
2023-11-06T14:11:34.714Z,0.10
2023-11-06T14:14:07.295Z,0.30
2023-11-06T14:16:34.888Z,0.20
2023-11-06T14:19:01.735Z,0.30
2023-11-06T14:21:29.013Z,0.23
2023-11-06T14:23:55.825Z,0.10
2023-11-06T14:26:24.188Z,0.10
2023-11-06T14:28:51.797Z,0.10
2023-11-06T14:31:20.194Z,0.10
2023-11-06T14:33:49.102Z,0.10
2023-11-06T14:36:16.050Z,0.20
2023-11-06T14:38:42.950Z,0.10
2023-11-06T14:41:10.527Z,0.80
2023-11-06T14:43:38.085Z,0.10
2023-11-06T14:46:05.633Z,0.40
2023-11-06T14:48:32.749Z,0.10
2023-11-06T14:50:59.861Z,0.20
2023-11-06T14:53:37.532Z,0.40
2023-11-06T14:56:17.512Z,0.70
2023-11-06T14:58:44.813Z,0.70
2023-11-06T15:01:14.911Z,0.87
2023-11-06T15:03:42.626Z,0.70
2023-11-06T15:06:09.736Z,1.43
2023-11-06T15:08:39.083Z,1.37
2023-11-06T15:11:06.391Z,0.30
2023-11-06T15:13:34.320Z,0.63
2023-11-06T15:16:01.848Z,0.30
2023-11-06T15:18:29.920Z,0.40
2023-11-06T15:20:57.536Z,3.80
2023-11-06T15:23:26.785Z,10.17
2023-11-06T15:25:54.206Z,10.47
2023-11-06T15:28:21.192Z,3.20
2023-11-06T15:30:48.188Z,3.90
2023-11-06T15:33:15.256Z,2.60
2023-11-06T15:35:42.315Z,0.80
2023-11-06T15:38:10.722Z,1.03
2023-11-06T15:40:37.675Z,2.83
2023-11-06T15:43:04.851Z,1.27
2023-11-06T15:45:32.905Z,0.40
2023-11-06T15:48:02.757Z,0.23
2023-11-06T15:50:31.809Z,0.20
2023-11-06T15:52:59.484Z,2.83
2023-11-06T15:55:34.517Z,3.40
2023-11-06T15:58:02.642Z,5.00
2023-11-06T16:00:30.433Z,1.03
2023-11-06T16:02:57.938Z,0.90
2023-11-06T16:05:24.976Z,0.50
2023-11-06T16:07:51.807Z,0.50
2023-11-06T16:10:19.127Z,2.87
2023-11-06T16:12:46.002Z,8.10
2023-11-06T16:15:12.886Z,4.77
2023-11-06T16:17:41.137Z,6.00
2023-11-06T16:20:09.471Z,5.10
2023-11-06T16:22:36.499Z,9.37
2023-11-06T16:25:06.428Z,12.07
2023-11-06T16:27:33.432Z,10.90
2023-11-06T16:30:03.298Z,10.77
2023-11-06T16:32:32.114Z,6.73
2023-11-06T16:34:59.161Z,6.57
2023-11-06T16:37:26.832Z,4.10
2023-11-06T16:39:56.528Z,3.40
2023-11-06T16:42:25.636Z,5.80
2023-11-06T16:44:53.731Z,2.60
2023-11-06T16:47:20.654Z,3.57
2023-11-06T16:49:47.562Z,4.27
2023-11-06T16:52:14.428Z,7.10
2023-11-06T16:54:41.421Z,5.63
2023-11-06T16:57:08.493Z,5.73
2023-11-06T16:59:35.421Z,7.83
2023-11-06T17:02:02.626Z,3.60
2023-11-06T17:04:31.693Z,4.73
2023-11-06T17:06:58.908Z,3.13
2023-11-06T17:09:26.043Z,6.47
2023-11-06T17:11:57.846Z,4.57
2023-11-06T17:14:27.916Z,2.70
2023-11-06T17:16:55.182Z,2.90
2023-11-06T17:19:23.171Z,4.03
2023-11-06T17:21:50.818Z,5.77
2023-11-06T17:24:17.857Z,6.30
2023-11-06T17:26:46.122Z,3.87
2023-11-06T17:29:13.137Z,3.13
2023-11-06T17:31:40.086Z,4.47
2023-11-06T17:34:07.119Z,4.17
2023-11-06T17:36:35.306Z,2.63
2023-11-06T17:39:02.771Z,4.53
2023-11-06T17:41:30.078Z,6.93
2023-11-06T17:43:57.422Z,7.03
2023-11-06T17:46:24.590Z,3.97
2023-11-06T17:48:54.085Z,2.17
2023-11-06T17:51:22.232Z,4.07
2023-11-06T17:53:49.599Z,3.57
2023-11-06T17:56:17.388Z,6.13
2023-11-06T17:58:44.670Z,6.60
2023-11-06T18:01:11.568Z,4.00
2023-11-06T18:03:41.852Z,3.20
2023-11-06T18:06:09.453Z,5.60
2023-11-06T18:08:37.376Z,5.07
2023-11-06T18:11:05.473Z,5.87
2023-11-06T18:13:35.771Z,6.13
2023-11-06T18:16:04.001Z,8.97
2023-11-06T18:18:30.898Z,6.57
2023-11-06T18:20:57.899Z,7.40
2023-11-06T18:23:25.357Z,8.77
2023-11-06T18:25:53.933Z,8.70
2023-11-06T18:28:21.087Z,5.83
2023-11-06T18:30:51.108Z,5.23
2023-11-06T18:33:18.072Z,2.47
2023-11-06T18:35:45.435Z,1.33
2023-11-06T18:38:15.595Z,2.23
2023-11-06T18:40:44.290Z,3.43
2023-11-06T18:43:11.460Z,3.03
2023-11-06T18:45:39.454Z,3.43
2023-11-06T18:48:06.563Z,2.87
2023-11-06T18:50:34.238Z,5.80
2023-11-06T18:53:01.300Z,3.63
2023-11-06T18:55:28.493Z,3.70
2023-11-06T18:57:55.452Z,4.27
2023-11-06T19:00:22.592Z,10.40
2023-11-06T19:02:50.295Z,6.30
2023-11-06T19:05:18.298Z,5.23
2023-11-06T19:07:45.603Z,17.70
2023-11-06T19:10:12.968Z,30.30
2023-11-06T19:12:40.451Z,24.57
2023-11-06T19:15:10.899Z,15.93
2023-11-06T19:17:39.262Z,12.70
2023-11-06T19:20:07.720Z,8.70
2023-11-06T19:22:35.020Z,5.00
2023-11-06T19:25:04.519Z,3.23
2023-11-06T19:27:32.858Z,2.87
2023-11-06T19:30:00.318Z,3.87
2023-11-06T19:32:27.448Z,8.93
2023-11-06T19:34:54.527Z,6.83
2023-11-06T19:37:22.105Z,12.23
2023-11-06T19:39:49.221Z,11.77
2023-11-06T19:42:16.238Z,5.63
2023-11-06T19:44:44.645Z,5.90
2023-11-06T19:47:12.116Z,9.60
2023-11-06T19:49:39.144Z,10.97
2023-11-06T19:52:06.426Z,9.57
2023-11-06T19:54:33.443Z,6.13
2023-11-06T19:57:00.779Z,4.53
2023-11-06T19:59:41.675Z,5.07
2023-11-06T20:02:16.139Z,3.87
2023-11-06T20:04:43.236Z,8.00
2023-11-06T20:07:10.713Z,10.73
2023-11-06T20:09:42.620Z,9.87
2023-11-06T20:12:10.356Z,11.27
2023-11-06T20:14:39.207Z,13.13
2023-11-06T20:17:06.313Z,6.20
2023-11-06T20:19:34.334Z,7.80
2023-11-06T20:22:01.641Z,5.87
2023-11-06T20:24:28.675Z,5.07
2023-11-06T20:26:55.721Z,3.50
2023-11-06T20:29:23.815Z,2.13
2023-11-06T20:31:51.909Z,2.10
2023-11-06T20:34:18.816Z,0.90
2023-11-06T20:36:46.838Z,1.30
2023-11-06T20:39:17.488Z,1.47
2023-11-06T20:41:45.702Z,1.27
2023-11-06T20:44:13.259Z,2.77
2023-11-06T20:46:40.544Z,2.30
2023-11-06T20:49:07.548Z,2.17
2023-11-06T20:51:40.668Z,0.83
2023-11-06T20:54:07.960Z,3.50
2023-11-06T20:56:37.195Z,2.17
2023-11-06T20:59:05.121Z,2.07
2023-11-06T21:01:32.738Z,2.20
2023-11-06T21:04:01.225Z,2.70
2023-11-06T21:06:28.703Z,2.30
2023-11-06T21:08:56.126Z,2.33
2023-11-06T21:11:25.352Z,1.00
2023-11-06T21:13:52.236Z,1.20
2023-11-06T21:16:19.414Z,2.40
2023-11-06T21:18:47.164Z,2.07
2023-11-06T21:21:14.984Z,1.00
2023-11-06T21:23:42.171Z,1.40
2023-11-06T21:26:09.013Z,0.97
2023-11-06T21:28:35.965Z,0.87
2023-11-06T21:31:04.106Z,0.90
2023-11-06T21:33:31.087Z,1.07
2023-11-06T21:35:58.192Z,1.10
2023-11-06T21:38:25.228Z,1.70
2023-11-06T21:40:52.162Z,1.10
2023-11-06T21:43:19.037Z,0.80
2023-11-06T21:45:46.634Z,0.50
2023-11-06T21:48:14.074Z,0.83
2023-11-06T21:50:41.102Z,1.03
2023-11-06T21:53:09.938Z,0.80
2023-11-06T21:55:36.999Z,2.27
2023-11-06T21:58:04.095Z,5.43
2023-11-06T22:00:30.963Z,2.03
2023-11-06T22:02:59.459Z,1.60
2023-11-06T22:05:26.682Z,2.33
2023-11-06T22:07:53.612Z,2.53
2023-11-06T22:10:25.324Z,0.40
2023-11-06T22:12:53.119Z,2.27
2023-11-06T22:15:20.109Z,2.43
2023-11-06T22:17:47.974Z,0.90
2023-11-06T22:20:15.996Z,1.40
2023-11-06T22:22:42.928Z,0.40
2023-11-06T22:25:10.755Z,1.03
2023-11-06T22:27:39.221Z,1.43
2023-11-06T22:30:07.377Z,0.87
2023-11-06T22:32:34.441Z,0.20
2023-11-06T22:35:01.553Z,1.97
2023-11-06T22:37:28.410Z,1.77
2023-11-06T22:39:55.257Z,0.50
2023-11-06T22:42:22.209Z,0.33
2023-11-06T22:44:49.420Z,1.40
2023-11-06T22:47:16.351Z,0.63
2023-11-06T22:49:43.399Z,0.20
2023-11-06T22:52:10.280Z,0.30
2023-11-06T22:54:42.718Z,1.80
2023-11-06T22:57:10.522Z,0.43
2023-11-06T22:59:37.468Z,1.80
2023-11-06T23:02:06.011Z,0.87
2023-11-06T23:04:33.666Z,0.77
2023-11-06T23:07:00.885Z,0.77
2023-11-06T23:09:29.422Z,1.83
2023-11-06T23:11:57.393Z,1.27
2023-11-06T23:14:24.480Z,2.50
2023-11-06T23:16:53.230Z,0.77
2023-11-06T23:19:20.209Z,0.53
2023-11-06T23:21:47.162Z,1.50
2023-11-06T23:24:14.129Z,1.50
2023-11-06T23:26:46.598Z,0.60
2023-11-06T23:29:15.054Z,0.40
2023-11-06T23:31:42.481Z,0.73
2023-11-06T23:34:10.576Z,0.40
2023-11-06T23:36:38.136Z,0.60
2023-11-06T23:39:05.429Z,1.40
2023-11-06T23:41:40.580Z,0.30
2023-11-06T23:44:12.424Z,0.97
2023-11-06T23:46:40.008Z,1.37
2023-11-06T23:49:09.609Z,1.07
2023-11-06T23:51:37.275Z,0.47
2023-11-06T23:54:05.133Z,1.10
2023-11-06T23:56:32.718Z,1.30
2023-11-06T23:58:59.870Z,0.23
